Time;durP1;ratioP1;P1;durP2;ratioP2;P2;SDS_P1;SDS_P2;PMS_P1;PMS_P2;Temp;Humidity;BMP_temperature;BMP_pressure;BME280_temperature;BME280_humidity;BME280_pressure;Samples;Min_cycle;Max_cycle;Signal;HPM_P1;HPM_P2
2022/08/28 00:01:34;;;;;;;13.90;10.60;;;;;;;;;;5075194;28;20522;-76
2022/08/28 00:04:01;;;;;;;15.80;10.53;;;;;;;;;;5074895;28;20470;-76
2022/08/28 00:06:28;;;;;;;12.57;10.13;;;;;;;;;;5075109;28;20843;-76
2022/08/28 00:08:56;;;;;;;12.10;10.30;;;;;;;;;;5075209;28;20452;-77
2022/08/28 00:11:24;;;;;;;16.60;10.50;;;;;;;;;;5074936;28;20440;-76
2022/08/28 00:13:52;;;;;;;14.03;10.43;;;;;;;;;;5073844;28;20467;-76
2022/08/28 00:16:19;;;;;;;15.67;10.70;;;;;;;;;;5074156;28;20444;-76
2022/08/28 00:18:47;;;;;;;10.20;9.17;;;;;;;;;;5075011;28;20455;-76
2022/08/28 00:21:14;;;;;;;12.00;9.80;;;;;;;;;;5074671;28;20491;-76
2022/08/28 00:23:41;;;;;;;13.00;9.60;;;;;;;;;;5074514;28;20476;-76
2022/08/28 00:26:08;;;;;;;13.87;9.20;;;;;;;;;;5074610;28;20456;-76
2022/08/28 00:28:36;;;;;;;15.77;11.20;;;;;;;;;;5074619;28;20459;-76
2022/08/28 00:31:03;;;;;;;10.97;9.83;;;;;;;;;;5074835;28;20546;-76
2022/08/28 00:33:32;;;;;;;10.57;9.37;;;;;;;;;;5074469;28;20472;-76
2022/08/28 00:36:01;;;;;;;14.20;9.80;;;;;;;;;;5074536;28;20456;-76
2022/08/28 00:38:28;;;;;;;12.07;10.77;;;;;;;;;;5074451;28;20494;-76
2022/08/28 00:40:57;;;;;;;17.00;11.10;;;;;;;;;;5074348;28;20491;-76
2022/08/28 00:43:27;;;;;;;16.50;10.43;;;;;;;;;;5074059;28;20845;-76
2022/08/28 00:45:55;;;;;;;11.87;9.50;;;;;;;;;;5074406;28;20470;-76
2022/08/28 00:48:23;;;;;;;13.13;10.80;;;;;;;;;;5074157;28;20451;-76
2022/08/28 00:53:34;;;;;;;16.47;11.67;;;;;;;;;;5073893;28;20477;-76
2022/08/28 00:56:03;;;;;;;16.00;11.77;;;;;;;;;;5074240;28;20448;-76
2022/08/28 00:58:30;;;;;;;14.23;11.40;;;;;;;;;;5073999;28;20945;-77
2022/08/28 01:00:59;;;;;;;15.83;11.97;;;;;;;;;;5074038;28;20494;-77
2022/08/28 01:03:26;;;;;;;13.73;12.27;;;;;;;;;;5073925;28;20984;-76
2022/08/28 01:05:54;;;;;;;15.70;13.30;;;;;;;;;;5074017;28;20945;-77
2022/08/28 01:08:21;;;;;;;16.73;14.10;;;;;;;;;;5073819;28;20455;-76
2022/08/28 01:10:51;;;;;;;16.00;12.50;;;;;;;;;;5073830;28;20948;-76
2022/08/28 01:13:18;;;;;;;15.07;13.57;;;;;;;;;;5073234;28;20474;-76
2022/08/28 01:15:46;;;;;;;17.10;13.77;;;;;;;;;;5073751;28;20491;-77
2022/08/28 01:18:15;;;;;;;19.50;14.83;;;;;;;;;;5073782;28;20811;-76
2022/08/28 01:20:47;;;;;;;20.33;15.80;;;;;;;;;;5073511;28;20494;-77
2022/08/28 01:23:19;;;;;;;19.17;14.03;;;;;;;;;;5073830;28;20502;-76
2022/08/28 01:25:47;;;;;;;22.77;15.50;;;;;;;;;;5073230;28;20467;-76
2022/08/28 01:28:15;;;;;;;21.13;16.27;;;;;;;;;;5073637;28;20796;-76
2022/08/28 01:30:44;;;;;;;21.60;16.07;;;;;;;;;;5073528;28;20455;-76
2022/08/28 01:33:13;;;;;;;24.07;16.50;;;;;;;;;;5073363;28;20472;-76
2022/08/28 01:35:42;;;;;;;23.40;16.80;;;;;;;;;;5073071;28;20459;-76
2022/08/28 01:38:09;;;;;;;23.23;15.43;;;;;;;;;;5073641;28;20452;-76
2022/08/28 01:40:38;;;;;;;26.30;16.93;;;;;;;;;;5073331;28;20992;-76
2022/08/28 01:43:11;;;;;;;22.43;17.23;;;;;;;;;;5073356;28;20452;-76
2022/08/28 01:45:38;;;;;;;22.33;17.07;;;;;;;;;;5073011;28;20546;-76
2022/08/28 01:48:06;;;;;;;24.70;16.60;;;;;;;;;;5073430;28;20455;-76
2022/08/28 01:50:33;;;;;;;26.07;18.10;;;;;;;;;;5073347;28;20454;-76
2022/08/28 01:53:01;;;;;;;24.97;18.23;;;;;;;;;;5073137;28;20452;-76
2022/08/28 01:55:28;;;;;;;26.60;19.30;;;;;;;;;;5072772;28;20464;-76
2022/08/28 01:57:56;;;;;;;26.33;18.20;;;;;;;;;;5073025;28;20525;-76
2022/08/28 02:00:26;;;;;;;25.17;18.50;;;;;;;;;;5073119;28;20486;-76
2022/08/28 02:02:54;;;;;;;23.63;19.00;;;;;;;;;;5073124;28;20968;-76
2022/08/28 02:05:22;;;;;;;25.80;18.20;;;;;;;;;;5072813;28;20949;-76
2022/08/28 02:07:49;;;;;;;25.27;18.77;;;;;;;;;;5073186;28;20508;-76
2022/08/28 02:10:17;;;;;;;28.23;19.87;;;;;;;;;;5073098;28;20813;-76
2022/08/28 02:12:44;;;;;;;27.30;18.37;;;;;;;;;;5072852;28;20447;-76
2022/08/28 02:15:12;;;;;;;32.00;19.53;;;;;;;;;;5072516;28;20478;-76
2022/08/28 02:17:40;;;;;;;25.90;18.40;;;;;;;;;;5073086;28;20459;-76
2022/08/28 02:20:08;;;;;;;22.50;18.67;;;;;;;;;;5072983;28;20484;-77
2022/08/28 02:22:35;;;;;;;25.50;18.70;;;;;;;;;;5072739;28;20837;-77
2022/08/28 02:25:03;;;;;;;27.63;21.77;;;;;;;;;;5072544;28;20471;-77
2022/08/28 02:27:31;;;;;;;25.00;18.63;;;;;;;;;;5072714;28;20542;-76
2022/08/28 02:29:58;;;;;;;26.70;18.33;;;;;;;;;;5072829;28;20557;-76
2022/08/28 02:32:25;;;;;;;24.73;19.53;;;;;;;;;;5072683;28;20505;-76
2022/08/28 02:34:54;;;;;;;25.10;19.10;;;;;;;;;;5072515;28;20470;-77
2022/08/28 02:37:23;;;;;;;25.33;18.60;;;;;;;;;;5072917;28;20458;-77
2022/08/28 02:39:50;;;;;;;26.30;19.80;;;;;;;;;;5076789;28;20931;-77
2022/08/28 02:42:17;;;;;;;30.53;20.33;;;;;;;;;;5076928;28;20459;-77
2022/08/28 02:44:45;;;;;;;26.40;21.47;;;;;;;;;;5076552;28;20965;-77
2022/08/28 02:47:13;;;;;;;29.43;19.70;;;;;;;;;;5076623;28;20542;-76
2022/08/28 02:49:40;;;;;;;28.10;21.37;;;;;;;;;;5076522;28;20534;-76
2022/08/28 02:52:09;;;;;;;25.93;20.33;;;;;;;;;;5076458;28;20463;-76
2022/08/28 02:54:38;;;;;;;29.80;19.63;;;;;;;;;;5076007;28;20477;-76
2022/08/28 02:57:05;;;;;;;28.43;19.83;;;;;;;;;;5076585;28;20898;-76
2022/08/28 02:59:33;;;;;;;27.07;22.57;;;;;;;;;;5076319;28;20451;-76
2022/08/28 03:02:02;;;;;;;28.23;20.90;;;;;;;;;;5076404;28;20494;-76
2022/08/28 03:04:30;;;;;;;26.80;20.20;;;;;;;;;;5075910;28;20529;-76
2022/08/28 03:06:58;;;;;;;30.93;21.00;;;;;;;;;;5076376;28;20452;-76
2022/08/28 03:09:26;;;;;;;33.07;21.13;;;;;;;;;;5075999;28;20451;-76
2022/08/28 03:11:53;;;;;;;34.00;24.33;;;;;;;;;;5076175;28;20451;-76
2022/08/28 03:14:20;;;;;;;34.73;21.53;;;;;;;;;;5075471;28;21038;-76
2022/08/28 03:16:48;;;;;;;29.50;21.77;;;;;;;;;;5076006;28;20542;-76
2022/08/28 03:19:15;;;;;;;35.33;21.30;;;;;;;;;;5075990;28;20451;-76
2022/08/28 03:21:43;;;;;;;32.17;21.63;;;;;;;;;;5075664;28;20483;-76
2022/08/28 03:24:10;;;;;;;32.20;20.90;;;;;;;;;;5075787;28;20471;-76
2022/08/28 03:26:38;;;;;;;26.97;19.70;;;;;;;;;;5075870;28;20939;-76
2022/08/28 03:29:05;;;;;;;28.60;20.83;;;;;;;;;;5075908;28;20463;-76
2022/08/28 03:31:34;;;;;;;32.33;20.63;;;;;;;;;;5075828;28;20440;-76
2022/08/28 03:34:02;;;;;;;29.47;19.37;;;;;;;;;;5075430;28;20533;-76
2022/08/28 03:36:30;;;;;;;26.17;18.67;;;;;;;;;;5075521;28;20459;-77
2022/08/28 03:38:58;;;;;;;31.03;19.53;;;;;;;;;;5075682;28;20462;-77
2022/08/28 03:41:27;;;;;;;26.37;19.10;;;;;;;;;;5075574;28;20502;-77
2022/08/28 03:43:57;;;;;;;25.53;19.93;;;;;;;;;;5075276;28;20480;-77
2022/08/28 03:46:25;;;;;;;26.93;18.87;;;;;;;;;;5075577;28;20444;-76
2022/08/28 03:48:53;;;;;;;25.93;19.20;;;;;;;;;;5075186;28;20440;-77
2022/08/28 03:51:21;;;;;;;26.90;21.13;;;;;;;;;;5075253;28;20455;-76
2022/08/28 03:53:49;;;;;;;30.30;21.37;;;;;;;;;;5075088;28;20464;-76
2022/08/28 03:56:20;;;;;;;26.10;17.90;;;;;;;;;;5075385;28;20819;-76
2022/08/28 03:58:47;;;;;;;26.80;19.00;;;;;;;;;;5075257;28;20494;-76
2022/08/28 04:01:16;;;;;;;26.50;18.80;;;;;;;;;;5075354;28;20487;-76
2022/08/28 04:03:44;;;;;;;26.07;19.00;;;;;;;;;;5074949;28;20480;-76
2022/08/28 04:06:11;;;;;;;25.90;19.10;;;;;;;;;;5075140;28;20452;-76
2022/08/28 04:08:38;;;;;;;26.23;18.13;;;;;;;;;;5075008;28;20444;-76
2022/08/28 04:11:06;;;;;;;22.80;16.57;;;;;;;;;;5075093;28;20933;-76
2022/08/28 04:13:33;;;;;;;20.60;17.03;;;;;;;;;;5074310;28;20842;-76
2022/08/28 04:16:01;;;;;;;24.33;18.20;;;;;;;;;;5074887;28;20448;-77
2022/08/28 04:18:30;;;;;;;24.03;17.50;;;;;;;;;;5074929;28;20993;-76
2022/08/28 04:21:01;;;;;;;20.93;17.10;;;;;;;;;;5074843;28;20944;-76
2022/08/28 04:23:28;;;;;;;22.10;17.13;;;;;;;;;;5074534;28;20487;-76
2022/08/28 04:25:55;;;;;;;20.17;16.13;;;;;;;;;;5074854;28;20452;-76
2022/08/28 04:28:22;;;;;;;21.23;16.87;;;;;;;;;;5074719;28;20448;-76
2022/08/28 04:30:53;;;;;;;27.07;17.60;;;;;;;;;;5074808;28;20968;-76
2022/08/28 04:33:20;;;;;;;22.00;16.70;;;;;;;;;;5074446;28;20471;-76
2022/08/28 04:35:49;;;;;;;20.40;15.70;;;;;;;;;;5074480;28;20451;-76
2022/08/28 04:38:16;;;;;;;22.07;17.53;;;;;;;;;;5074420;28;20811;-76
2022/08/28 04:40:43;;;;;;;21.80;17.80;;;;;;;;;;5074609;28;20456;-76
2022/08/28 04:43:10;;;;;;;22.80;17.10;;;;;;;;;;5074568;28;20471;-76
2022/08/28 04:45:39;;;;;;;19.30;17.10;;;;;;;;;;5074149;28;20460;-76
2022/08/28 04:48:06;;;;;;;22.03;17.40;;;;;;;;;;5074502;28;20477;-76
2022/08/28 04:50:35;;;;;;;21.60;16.10;;;;;;;;;;5074295;28;20478;-76
2022/08/28 04:53:03;;;;;;;19.30;15.40;;;;;;;;;;5074042;28;20456;-76
2022/08/28 04:55:30;;;;;;;21.47;17.40;;;;;;;;;;5073849;28;20454;-76
2022/08/28 04:57:57;;;;;;;21.10;16.30;;;;;;;;;;5074145;28;20968;-77
2022/08/28 05:00:25;;;;;;;20.37;15.53;;;;;;;;;;5073471;28;20452;-76
2022/08/28 05:02:52;;;;;;;22.70;16.60;;;;;;;;;;5074017;28;20487;-76
2022/08/28 05:05:19;;;;;;;17.80;15.80;;;;;;;;;;5073759;28;20514;-76
2022/08/28 05:07:47;;;;;;;17.43;14.90;;;;;;;;;;5073840;28;20483;-76
2022/08/28 05:10:15;;;;;;;18.80;14.73;;;;;;;;;;5073856;28;20456;-76
2022/08/28 05:12:43;;;;;;;18.73;14.53;;;;;;;;;;5073875;28;20478;-76
2022/08/28 05:15:11;;;;;;;17.73;15.33;;;;;;;;;;5072907;28;20479;-76
2022/08/28 05:17:38;;;;;;;18.90;15.47;;;;;;;;;;5073750;28;20801;-76
2022/08/28 05:20:05;;;;;;;26.33;17.50;;;;;;;;;;5073657;28;20513;-76
2022/08/28 05:22:33;;;;;;;19.23;15.37;;;;;;;;;;5073394;28;20530;-76
2022/08/28 05:25:00;;;;;;;17.10;14.30;;;;;;;;;;5073208;28;20475;-76
2022/08/28 05:27:29;;;;;;;21.10;15.90;;;;;;;;;;5090252;28;20450;-76
2022/08/28 05:29:56;;;;;;;17.60;14.70;;;;;;;;;;5093291;28;20487;-76
2022/08/28 05:32:23;;;;;;;18.80;15.07;;;;;;;;;;5093505;28;20446;-76
2022/08/28 05:34:50;;;;;;;16.73;13.83;;;;;;;;;;5093378;28;20986;-76
2022/08/28 05:37:17;;;;;;;18.97;14.87;;;;;;;;;;5093262;28;20462;-76
2022/08/28 05:39:44;;;;;;;15.60;13.90;;;;;;;;;;5093521;28;20453;-76
2022/08/28 05:42:12;;;;;;;20.87;15.37;;;;;;;;;;5093606;28;20845;-76
2022/08/28 05:44:40;;;;;;;20.03;14.40;;;;;;;;;;5093102;28;20475;-76
2022/08/28 05:47:07;;;;;;;18.50;14.70;;;;;;;;;;5093281;28;21013;-76
2022/08/28 05:49:34;;;;;;;20.90;15.20;;;;;;;;;;5093074;28;20455;-76
2022/08/28 05:52:01;;;;;;;20.07;14.67;;;;;;;;;;5093257;28;20462;-76
2022/08/28 05:54:28;;;;;;;18.10;14.73;;;;;;;;;;5092855;28;20979;-76
2022/08/28 05:56:56;;;;;;;17.50;12.80;;;;;;;;;;5093213;28;20454;-76
2022/08/28 05:59:24;;;;;;;17.97;14.30;;;;;;;;;;5093043;28;20457;-76
2022/08/28 06:01:52;;;;;;;17.00;14.53;;;;;;;;;;5093172;28;20566;-76
2022/08/28 06:04:21;;;;;;;15.70;13.93;;;;;;;;;;5092654;28;20466;-75
2022/08/28 06:06:48;;;;;;;19.37;13.57;;;;;;;;;;5093006;28;20455;-75
2022/08/28 06:09:17;;;;;;;18.57;15.20;;;;;;;;;;5093129;28;20551;-75
2022/08/28 06:11:44;;;;;;;20.10;13.67;;;;;;;;;;5092805;28;20451;-75
2022/08/28 06:14:12;;;;;;;20.53;15.93;;;;;;;;;;5092392;28;20478;-75
2022/08/28 06:16:40;;;;;;;19.70;15.10;;;;;;;;;;5092979;28;20477;-75
2022/08/28 06:19:09;;;;;;;21.40;16.27;;;;;;;;;;5093227;28;20457;-75
2022/08/28 06:21:37;;;;;;;19.87;16.87;;;;;;;;;;5092927;28;21030;-75
2022/08/28 06:24:04;;;;;;;16.10;14.37;;;;;;;;;;5092836;28;20475;-75
2022/08/28 06:26:31;;;;;;;15.30;13.70;;;;;;;;;;5093178;28;20951;-75
2022/08/28 06:29:00;;;;;;;17.67;14.80;;;;;;;;;;5093215;28;20451;-75
2022/08/28 06:31:27;;;;;;;16.43;14.50;;;;;;;;;;5092883;28;20455;-75
2022/08/28 06:33:55;;;;;;;19.47;14.17;;;;;;;;;;5092735;28;20478;-75
2022/08/28 06:36:26;;;;;;;17.70;14.37;;;;;;;;;;5092882;28;20905;-75
2022/08/28 06:38:54;;;;;;;23.80;17.10;;;;;;;;;;5093106;28;20806;-75
2022/08/28 06:41:21;;;;;;;18.53;13.90;;;;;;;;;;5092744;28;20500;-76
2022/08/28 06:43:48;;;;;;;16.50;13.03;;;;;;;;;;5092627;28;20462;-75
2022/08/28 06:46:16;;;;;;;16.77;14.83;;;;;;;;;;5092862;28;20451;-76
2022/08/28 06:48:43;;;;;;;19.27;15.57;;;;;;;;;;5092905;28;20455;-76
2022/08/28 06:51:11;;;;;;;19.73;15.07;;;;;;;;;;5092849;28;20845;-76
2022/08/28 06:53:41;;;;;;;24.10;16.23;;;;;;;;;;5092572;28;21011;-75
2022/08/28 06:56:10;;;;;;;17.20;13.33;;;;;;;;;;5092813;28;20827;-76
2022/08/28 06:58:39;;;;;;;15.77;13.30;;;;;;;;;;5092545;28;20443;-76
2022/08/28 07:01:07;;;;;;;19.20;14.00;;;;;;;;;;5092860;28;20454;-76
2022/08/28 07:03:34;;;;;;;13.80;12.30;;;;;;;;;;5092314;28;20581;-78
2022/08/28 07:06:03;;;;;;;16.00;12.87;;;;;;;;;;5092802;28;20948;-76
2022/08/28 07:08:30;;;;;;;15.10;12.37;;;;;;;;;;5092660;28;20836;-76
2022/08/28 07:11:00;;;;;;;16.87;13.57;;;;;;;;;;5092779;28;20450;-76
2022/08/28 07:13:27;;;;;;;17.70;14.47;;;;;;;;;;5091942;28;20467;-76
2022/08/28 07:15:54;;;;;;;19.37;13.83;;;;;;;;;;5092646;28;20442;-76
2022/08/28 07:18:22;;;;;;;17.10;14.13;;;;;;;;;;5088958;28;20469;-75
2022/08/28 07:20:56;;;;;;;15.13;13.53;;;;;;;;;;5090793;28;20966;-75
2022/08/28 07:23:23;;;;;;;14.27;12.77;;;;;;;;;;5090944;28;20585;-75
2022/08/28 07:25:50;;;;;;;16.23;12.90;;;;;;;;;;5094299;28;20465;-75
2022/08/28 07:28:18;;;;;;;17.30;14.77;;;;;;;;;;5094699;28;20834;-76
2022/08/28 07:30:46;;;;;;;22.40;16.47;;;;;;;;;;5094763;28;20826;-75
2022/08/28 07:33:13;;;;;;;16.50;12.93;;;;;;;;;;5094501;28;20467;-76
2022/08/28 07:35:43;;;;;;;17.83;14.07;;;;;;;;;;5094397;28;20469;-76
2022/08/28 07:38:11;;;;;;;17.50;14.73;;;;;;;;;;5088409;28;20977;-75
2022/08/28 07:40:38;;;;;;;20.20;15.03;;;;;;;;;;5093834;28;20795;-75
2022/08/28 07:45:58;;;;;;;15.03;13.53;;;;;;;;;;5094274;28;20442;-75
2022/08/28 07:48:25;;;;;;;20.10;14.10;;;;;;;;;;5094024;28;20573;-75
2022/08/28 07:50:52;;;;;;;20.23;15.60;;;;;;;;;;5094212;28;20439;-75
2022/08/28 07:53:20;;;;;;;16.13;12.73;;;;;;;;;;5093895;28;20980;-75
2022/08/28 07:55:47;;;;;;;20.90;14.43;;;;;;;;;;5093991;28;20458;-75
2022/08/28 07:58:14;;;;;;;21.93;15.17;;;;;;;;;;5094088;28;20450;-76
2022/08/28 08:00:41;;;;;;;14.13;12.67;;;;;;;;;;5093799;28;20458;-76
2022/08/28 08:03:10;;;;;;;21.30;14.57;;;;;;;;;;5093997;28;21183;-76
2022/08/28 08:05:37;;;;;;;16.53;13.90;;;;;;;;;;5093492;28;20824;-75
2022/08/28 08:08:05;;;;;;;22.23;16.17;;;;;;;;;;5093970;28;20846;-75
2022/08/28 08:10:32;;;;;;;17.33;15.20;;;;;;;;;;5093904;28;20482;-75
2022/08/28 08:12:59;;;;;;;19.83;16.03;;;;;;;;;;5093511;28;20794;-76
2022/08/28 08:15:26;;;;;;;21.43;16.33;;;;;;;;;;5093276;28;20457;-76
2022/08/28 08:17:53;;;;;;;17.53;15.07;;;;;;;;;;5093882;28;20829;-75
2022/08/28 08:20:22;;;;;;;18.10;13.40;;;;;;;;;;5093729;28;20454;-76
2022/08/28 08:22:49;;;;;;;20.07;14.97;;;;;;;;;;5093313;28;21084;-76
2022/08/28 08:25:16;;;;;;;28.27;15.63;;;;;;;;;;5093830;28;20458;-76
2022/08/28 08:27:43;;;;;;;17.30;13.43;;;;;;;;;;5093555;28;20462;-76
2022/08/28 08:30:11;;;;;;;17.60;14.60;;;;;;;;;;5093622;28;20944;-76
2022/08/28 08:32:39;;;;;;;17.70;13.47;;;;;;;;;;5094390;28;20956;-76
2022/08/28 08:35:06;;;;;;;18.90;15.10;;;;;;;;;;5093537;28;20844;-75
2022/08/28 08:37:35;;;;;;;19.73;15.23;;;;;;;;;;5094368;28;20459;-76
2022/08/28 08:40:02;;;;;;;21.03;16.20;;;;;;;;;;5095065;28;20863;-76
2022/08/28 08:42:30;;;;;;;20.60;16.17;;;;;;;;;;5094170;28;20491;-75
2022/08/28 08:44:58;;;;;;;22.37;16.73;;;;;;;;;;5094411;28;21003;-75
2022/08/28 08:47:31;;;;;;;21.27;15.83;;;;;;;;;;5094623;28;20446;-75
2022/08/28 08:50:00;;;;;;;24.47;17.87;;;;;;;;;;5094597;28;20530;-75
2022/08/28 08:52:29;;;;;;;21.83;15.33;;;;;;;;;;5094739;28;20955;-75
2022/08/28 08:55:05;;;;;;;22.20;15.60;;;;;;;;;;5094406;28;20463;-75
2022/08/28 08:57:33;;;;;;;21.03;17.53;;;;;;;;;;5094326;28;20450;-75
2022/08/28 09:00:01;;;;;;;20.97;17.03;;;;;;;;;;5094291;28;20454;-76
2022/08/28 09:02:31;;;;;;;24.53;18.80;;;;;;;;;;5094310;28;20995;-75
2022/08/28 09:05:02;;;;;;;21.60;16.17;;;;;;;;;;5094136;28;20462;-75
2022/08/28 09:07:36;;;;;;;19.97;16.03;;;;;;;;;;5094178;28;20447;-75
2022/08/28 09:10:06;;;;;;;32.93;26.13;;;;;;;;;;5094308;28;20453;-75
2022/08/28 09:12:39;;;;;;;26.33;15.63;;;;;;;;;;5094135;28;20450;-75
2022/08/28 09:15:10;;;;;;;21.10;15.90;;;;;;;;;;5093666;28;20829;-74
2022/08/28 09:17:40;;;;;;;20.40;17.20;;;;;;;;;;5094253;28;20454;-75
2022/08/28 09:20:08;;;;;;;20.63;14.80;;;;;;;;;;5093812;28;20486;-74
2022/08/28 09:22:36;;;;;;;17.23;13.33;;;;;;;;;;5093756;28;20539;-74
2022/08/28 09:25:04;;;;;;;16.40;13.70;;;;;;;;;;5093631;28;20532;-74
2022/08/28 09:27:33;;;;;;;18.70;16.40;;;;;;;;;;5093869;28;20940;-74
2022/08/28 09:30:01;;;;;;;17.50;13.50;;;;;;;;;;5093802;28;20454;-75
2022/08/28 09:32:31;;;;;;;14.97;13.17;;;;;;;;;;5093621;28;20453;-75
2022/08/28 09:35:00;;;;;;;16.30;12.87;;;;;;;;;;5093711;28;20972;-74
2022/08/28 09:37:30;;;;;;;12.60;11.13;;;;;;;;;;5093717;28;20509;-75
2022/08/28 09:43:26;;;;;;;9.27;8.33;;;;;;;;;;5111035;27;20518;-74
2022/08/28 09:45:58;;;;;;;9.90;9.00;;;;;;;;;;5111024;28;20446;-74
2022/08/28 09:48:30;;;;;;;10.23;9.17;;;;;;;;;;5110823;28;20457;-74
2022/08/28 09:51:02;;;;;;;13.40;11.10;;;;;;;;;;5110917;28;20450;-74
2022/08/28 09:53:29;;;;;;;10.60;9.50;;;;;;;;;;5110512;28;20474;-73
2022/08/28 09:56:00;;;;;;;13.53;11.20;;;;;;;;;;5110847;28;20515;-74
2022/08/28 09:58:31;;;;;;;13.97;12.40;;;;;;;;;;5110614;28;20460;-74
2022/08/28 10:01:03;;;;;;;12.33;11.03;;;;;;;;;;5110670;28;20518;-74
2022/08/28 10:03:34;;;;;;;13.13;10.90;;;;;;;;;;5110301;28;20476;-73
2022/08/28 10:06:04;;;;;;;13.47;11.47;;;;;;;;;;5110387;28;20450;-74
2022/08/28 10:08:41;;;;;;;11.83;10.63;;;;;;;;;;5110423;28;20449;-73
2022/08/28 10:11:13;;;;;;;11.83;10.73;;;;;;;;;;5110365;28;20454;-74
2022/08/28 10:13:47;;;;;;;15.37;11.70;;;;;;;;;;5109612;28;20474;-73
2022/08/28 10:16:21;;;;;;;11.67;9.57;;;;;;;;;;5110114;28;20454;-74
2022/08/28 10:18:51;;;;;;;12.80;10.50;;;;;;;;;;5110375;28;20457;-73
2022/08/28 10:21:21;;;;;;;11.23;10.07;;;;;;;;;;5110121;28;20568;-73
2022/08/28 10:24:04;;;;;;;11.33;9.97;;;;;;;;;;5109903;28;20966;-73
2022/08/28 10:26:38;;;;;;;10.07;9.07;;;;;;;;;;5109956;28;20460;-73
2022/08/28 10:29:16;;;;;;;10.50;9.40;;;;;;;;;;5110116;28;20450;-73
2022/08/28 10:31:48;;;;;;;10.33;8.37;;;;;;;;;;5110020;28;20450;-74
2022/08/28 10:34:27;;;;;;;12.70;9.70;;;;;;;;;;5109669;28;20469;-73
2022/08/28 10:37:00;;;;;;;9.93;8.47;;;;;;;;;;5109848;28;20450;-72
2022/08/28 10:39:32;;;;;;;12.70;9.07;;;;;;;;;;5109651;28;20464;-73
2022/08/28 10:42:00;;;;;;;9.53;7.93;;;;;;;;;;5109953;28;21021;-73
2022/08/28 10:44:33;;;;;;;10.20;9.20;;;;;;;;;;5109575;28;20477;-73
2022/08/28 10:47:04;;;;;;;11.10;9.90;;;;;;;;;;5109723;28;20446;-73
2022/08/28 10:49:33;;;;;;;10.07;9.17;;;;;;;;;;5109508;28;20477;-73
2022/08/28 10:52:05;;;;;;;13.80;11.13;;;;;;;;;;5109003;28;20442;-73
2022/08/28 10:54:35;;;;;;;11.60;10.40;;;;;;;;;;5095415;28;20523;-73
2022/08/28 10:57:06;;;;;;;9.80;8.57;;;;;;;;;;5089277;28;20845;-73
2022/08/28 10:59:34;;;;;;;10.90;9.80;;;;;;;;;;5084171;28;20454;-73
2022/08/28 11:02:04;;;;;;;10.87;9.87;;;;;;;;;;5094482;28;20489;-73
2022/08/28 11:04:32;;;;;;;14.20;9.60;;;;;;;;;;5093832;28;20470;-73
2022/08/28 11:07:01;;;;;;;10.70;9.50;;;;;;;;;;5094251;28;20948;-73
2022/08/28 11:09:31;;;;;;;11.07;9.97;;;;;;;;;;5093414;28;20542;-73
2022/08/28 11:11:58;;;;;;;12.90;9.83;;;;;;;;;;5094359;28;20485;-73
2022/08/28 11:14:28;;;;;;;14.87;11.13;;;;;;;;;;5093049;28;20470;-73
2022/08/28 11:16:57;;;;;;;11.93;9.80;;;;;;;;;;5094123;28;20963;-73
2022/08/28 11:19:39;;;;;;;11.37;10.17;;;;;;;;;;5093922;28;20461;-73
2022/08/28 11:22:11;;;;;;;12.70;10.43;;;;;;;;;;5091554;28;20498;-73
2022/08/28 11:24:45;;;;;;;11.43;10.23;;;;;;;;;;5093683;28;20509;-73
2022/08/28 11:27:24;;;;;;;13.37;11.93;;;;;;;;;;5093813;28;20836;-73
2022/08/28 11:29:58;;;;;;;13.13;11.73;;;;;;;;;;5093865;28;20944;-74
2022/08/28 11:32:53;;;;;;;13.90;12.30;;;;;;;;;;5093624;28;20450;-73
2022/08/28 11:35:41;;;;;;;18.57;11.30;;;;;;;;;;5093350;28;20916;-75
2022/08/28 11:38:10;;;;;;;20.47;13.93;;;;;;;;;;5088917;28;20459;-75
2022/08/28 11:40:50;;;;;;;15.90;12.67;;;;;;;;;;5093756;28;20454;-73
2022/08/28 11:43:36;;;;;;;16.77;13.37;;;;;;;;;;5093564;28;20498;-73
2022/08/28 11:46:24;;;;;;;15.40;13.60;;;;;;;;;;5094078;28;20439;-73
2022/08/28 11:48:52;;;;;;;16.93;12.97;;;;;;;;;;5094112;28;20439;-73
2022/08/28 11:51:45;;;;;;;18.93;13.73;;;;;;;;;;5093537;28;20451;-73
2022/08/28 11:54:20;;;;;;;15.97;12.93;;;;;;;;;;5093339;28;20474;-73
2022/08/28 11:56:51;;;;;;;18.90;14.60;;;;;;;;;;5093939;28;20451;-74
2022/08/28 11:59:24;;;;;;;16.63;14.40;;;;;;;;;;5093520;28;20449;-73
2022/08/28 12:01:51;;;;;;;18.80;14.20;;;;;;;;;;5094643;28;20471;-73
2022/08/28 12:04:20;;;;;;;16.10;14.40;;;;;;;;;;5090591;28;20849;-73
2022/08/28 12:06:48;;;;;;;17.73;14.03;;;;;;;;;;5094765;28;20538;-72
2022/08/28 12:09:30;;;;;;;15.20;13.03;;;;;;;;;;5094677;28;20455;-73
2022/08/28 12:12:04;;;;;;;25.60;13.93;;;;;;;;;;5094321;28;20450;-73
2022/08/28 12:15:06;;;;;;;14.63;11.40;;;;;;;;;;5093469;28;21009;-73
2022/08/28 12:17:47;;;;;;;14.70;11.77;;;;;;;;;;5094263;28;20451;-73
2022/08/28 12:20:19;;;;;;;12.77;10.60;;;;;;;;;;5094655;28;20931;-73
2022/08/28 12:22:48;;;;;;;15.07;11.23;;;;;;;;;;5094682;28;20481;-73
2022/08/28 12:25:23;;;;;;;13.27;11.97;;;;;;;;;;5094264;28;20455;-73
2022/08/28 12:27:52;;;;;;;11.90;9.93;;;;;;;;;;5094633;28;20441;-73
2022/08/28 12:30:27;;;;;;;13.63;9.83;;;;;;;;;;5094288;28;20435;-73
2022/08/28 12:32:56;;;;;;;15.77;10.90;;;;;;;;;;5094319;28;20458;-73
2022/08/28 12:35:26;;;;;;;12.23;10.70;;;;;;;;;;5094366;28;20815;-73
2022/08/28 12:38:01;;;;;;;10.17;8.90;;;;;;;;;;5094363;28;20458;-73
2022/08/28 12:40:29;;;;;;;10.70;9.60;;;;;;;;;;5094115;28;20902;-73
2022/08/28 12:43:00;;;;;;;17.50;10.33;;;;;;;;;;5094189;28;20474;-73
2022/08/28 12:45:28;;;;;;;9.30;8.20;;;;;;;;;;5093787;28;20431;-73
2022/08/28 12:47:58;;;;;;;10.47;9.30;;;;;;;;;;5094208;28;20454;-73
2022/08/28 12:50:28;;;;;;;11.40;10.10;;;;;;;;;;5093510;28;20457;-73
2022/08/28 12:52:57;;;;;;;14.27;10.77;;;;;;;;;;5080429;28;20459;-73
2022/08/28 12:55:25;;;;;;;11.83;9.40;;;;;;;;;;5073803;28;20809;-73
2022/08/28 12:57:53;;;;;;;10.60;9.50;;;;;;;;;;5073574;28;20519;-73
2022/08/28 13:00:23;;;;;;;13.00;11.00;;;;;;;;;;5073499;28;20451;-73
2022/08/28 13:02:51;;;;;;;11.70;9.40;;;;;;;;;;5073716;28;20985;-73
2022/08/28 13:05:24;;;;;;;11.07;8.60;;;;;;;;;;5072712;28;20455;-73
2022/08/28 13:07:53;;;;;;;10.10;8.80;;;;;;;;;;5073381;28;20472;-73
2022/08/28 13:10:22;;;;;;;11.57;10.37;;;;;;;;;;5073399;28;20460;-73
2022/08/28 13:12:56;;;;;;;9.67;8.67;;;;;;;;;;5073625;28;20815;-73
2022/08/28 13:15:41;;;;;;;9.13;8.23;;;;;;;;;;5072679;28;20428;-73
2022/08/28 13:18:10;;;;;;;11.17;9.63;;;;;;;;;;5072949;28;20479;-73
2022/08/28 13:20:38;;;;;;;10.30;8.30;;;;;;;;;;5073015;28;20457;-73
2022/08/28 13:23:06;;;;;;;14.83;10.50;;;;;;;;;;5073014;28;20555;-73
2022/08/28 13:25:35;;;;;;;7.60;6.90;;;;;;;;;;5072801;28;21050;-72
2022/08/28 13:28:04;;;;;;;9.47;8.57;;;;;;;;;;5073040;28;20448;-73
2022/08/28 13:30:32;;;;;;;7.90;7.00;;;;;;;;;;5086360;28;20461;-73
2022/08/28 13:33:00;;;;;;;12.13;9.30;;;;;;;;;;5076571;28;20452;-73
2022/08/28 13:35:40;;;;;;;11.00;9.70;;;;;;;;;;5072712;28;20458;-73
2022/08/28 13:38:08;;;;;;;9.90;7.90;;;;;;;;;;5074219;28;20444;-74
2022/08/28 13:40:40;;;;;;;13.37;12.03;;;;;;;;;;5072786;28;20462;-75
2022/08/28 13:43:08;;;;;;;9.47;8.50;;;;;;;;;;5072643;28;20559;-73
2022/08/28 13:45:36;;;;;;;10.10;8.17;;;;;;;;;;5072135;28;20462;-72
2022/08/28 13:48:04;;;;;;;9.83;8.37;;;;;;;;;;5073037;28;20901;-73
2022/08/28 13:50:31;;;;;;;8.67;7.30;;;;;;;;;;5074200;28;20460;-76
2022/08/28 13:53:00;;;;;;;8.57;7.67;;;;;;;;;;5084114;28;20455;-74
2022/08/28 13:55:27;;;;;;;9.40;8.50;;;;;;;;;;5092587;28;20470;-73
2022/08/28 13:57:54;;;;;;;13.30;8.37;;;;;;;;;;5092966;28;20683;-74
2022/08/28 14:00:21;;;;;;;9.70;8.80;;;;;;;;;;5092785;28;20453;-74
2022/08/28 14:05:33;;;;;;;14.40;10.60;;;;;;;;;;5083851;28;20924;-74
2022/08/28 14:08:02;;;;;;;13.70;11.33;;;;;;;;;;5072663;28;20470;-74
2022/08/28 14:10:29;;;;;;;13.97;11.13;;;;;;;;;;5072731;28;20460;-76
2022/08/28 14:12:56;;;;;;;19.87;11.50;;;;;;;;;;5072464;28;20860;-75
2022/08/28 14:15:24;;;;;;;12.77;10.10;;;;;;;;;;5072219;28;20451;-74
2022/08/28 14:17:52;;;;;;;10.87;8.70;;;;;;;;;;5076021;28;20547;-77
2022/08/28 14:20:19;;;;;;;12.40;11.20;;;;;;;;;;5072437;28;21042;-74
2022/08/28 14:22:49;;;;;;;13.40;9.97;;;;;;;;;;5072687;28;20505;-75
2022/08/28 14:25:18;;;;;;;17.07;12.00;;;;;;;;;;5073254;28;20828;-77
2022/08/28 14:27:45;;;;;;;13.27;10.63;;;;;;;;;;5073169;28;20451;-76
2022/08/28 14:30:12;;;;;;;11.13;9.93;;;;;;;;;;5083259;28;20956;-75
2022/08/28 14:32:39;;;;;;;11.27;10.17;;;;;;;;;;5080643;28;20799;-73
2022/08/28 14:35:07;;;;;;;13.93;11.20;;;;;;;;;;5076015;28;20475;-74
2022/08/28 14:37:34;;;;;;;11.07;9.93;;;;;;;;;;5080086;28;20460;-76
2022/08/28 14:40:01;;;;;;;15.10;12.17;;;;;;;;;;5096240;28;20825;-75
2022/08/28 14:42:30;;;;;;;13.97;12.17;;;;;;;;;;5095999;28;21003;-75
2022/08/28 14:44:57;;;;;;;11.70;10.60;;;;;;;;;;5095975;28;20933;-75